sensor_id;sensor_type;location;lat;lon;timestamp;P1;durP1;ratioP1;P2;durP2;ratioP2
4555;SDS011;2290;48.674;9.018;2022-08-01T00:01:52;2.57;;;1.93;;
4555;SDS011;2290;48.674;9.018;2022-08-01T00:04:18;2.40;;;2.00;;
4555;SDS011;2290;48.674;9.018;2022-08-01T00:06:43;2.70;;;2.20;;
4555;SDS011;2290;48.674;9.018;2022-08-01T00:09:10;2.73;;;2.17;;
4555;SDS011;2290;48.674;9.018;2022-08-01T00:11:36;3.37;;;2.37;;
4555;SDS011;2290;48.674;9.018;2022-08-01T00:14:03;2.67;;;2.20;;
4555;SDS011;2290;48.674;9.018;2022-08-01T00:16:28;2.53;;;2.00;;
4555;SDS011;2290;48.674;9.018;2022-08-01T00:18:55;3.50;;;2.20;;
4555;SDS011;2290;48.674;9.018;2022-08-01T00:21:21;3.00;;;2.23;;
4555;SDS011;2290;48.674;9.018;2022-08-01T00:23:47;3.83;;;2.20;;
4555;SDS011;2290;48.674;9.018;2022-08-01T00:26:13;2.50;;;2.10;;
4555;SDS011;2290;48.674;9.018;2022-08-01T00:28:39;3.40;;;2.70;;
4555;SDS011;2290;48.674;9.018;2022-08-01T00:31:05;3.37;;;1.93;;
4555;SDS011;2290;48.674;9.018;2022-08-01T00:33:31;2.60;;;1.83;;
4555;SDS011;2290;48.674;9.018;2022-08-01T00:35:57;2.80;;;1.93;;
4555;SDS011;2290;48.674;9.018;2022-08-01T00:38:23;2.47;;;2.00;;
4555;SDS011;2290;48.674;9.018;2022-08-01T00:40:48;3.43;;;1.77;;
4555;SDS011;2290;48.674;9.018;2022-08-01T00:43:14;3.53;;;2.40;;
4555;SDS011;2290;48.674;9.018;2022-08-01T00:45:40;3.03;;;2.20;;
4555;SDS011;2290;48.674;9.018;2022-08-01T00:48:06;4.33;;;2.17;;
4555;SDS011;2290;48.674;9.018;2022-08-01T00:50:34;2.67;;;1.83;;
4555;SDS011;2290;48.674;9.018;2022-08-01T00:53:00;2.37;;;2.17;;
4555;SDS011;2290;48.674;9.018;2022-08-01T00:55:27;3.00;;;2.53;;
4555;SDS011;2290;48.674;9.018;2022-08-01T00:57:53;2.67;;;2.20;;
4555;SDS011;2290;48.674;9.018;2022-08-01T01:00:19;3.40;;;2.30;;
4555;SDS011;2290;48.674;9.018;2022-08-01T01:02:44;2.67;;;2.30;;
4555;SDS011;2290;48.674;9.018;2022-08-01T01:05:10;3.53;;;2.30;;
4555;SDS011;2290;48.674;9.018;2022-08-01T01:07:50;3.20;;;2.30;;
4555;SDS011;2290;48.674;9.018;2022-08-01T01:13:18;1.90;;;1.67;;
4555;SDS011;2290;48.674;9.018;2022-08-01T01:16:00;2.80;;;2.10;;
4555;SDS011;2290;48.674;9.018;2022-08-01T01:21:57;3.60;;;2.20;;
4555;SDS011;2290;48.674;9.018;2022-08-01T01:24:16;2.30;;;2.00;;
4555;SDS011;2290;48.674;9.018;2022-08-01T01:27:17;2.83;;;2.20;;
4555;SDS011;2290;48.674;9.018;2022-08-01T01:29:50;2.97;;;2.63;;
4555;SDS011;2290;48.674;9.018;2022-08-01T01:32:38;2.37;;;2.10;;
4555;SDS011;2290;48.674;9.018;2022-08-01T01:35:18;8.43;;;2.50;;
4555;SDS011;2290;48.674;9.018;2022-08-01T01:37:47;4.03;;;2.57;;
4555;SDS011;2290;48.674;9.018;2022-08-01T01:40:17;4.80;;;2.60;;
4555;SDS011;2290;48.674;9.018;2022-08-01T01:42:44;2.70;;;2.20;;
4555;SDS011;2290;48.674;9.018;2022-08-01T01:45:11;2.87;;;2.37;;
4555;SDS011;2290;48.674;9.018;2022-08-01T01:47:39;3.10;;;2.13;;
4555;SDS011;2290;48.674;9.018;2022-08-01T01:50:06;3.00;;;2.03;;
4555;SDS011;2290;48.674;9.018;2022-08-01T01:52:36;2.90;;;2.27;;
4555;SDS011;2290;48.674;9.018;2022-08-01T01:55:06;3.30;;;2.50;;
4555;SDS011;2290;48.674;9.018;2022-08-01T01:57:36;2.67;;;2.30;;
4555;SDS011;2290;48.674;9.018;2022-08-01T02:00:04;3.17;;;2.30;;
4555;SDS011;2290;48.674;9.018;2022-08-01T02:02:33;2.97;;;2.40;;
4555;SDS011;2290;48.674;9.018;2022-08-01T02:05:01;3.30;;;2.30;;
4555;SDS011;2290;48.674;9.018;2022-08-01T02:07:30;3.80;;;2.50;;
4555;SDS011;2290;48.674;9.018;2022-08-01T02:09:57;3.00;;;2.57;;
4555;SDS011;2290;48.674;9.018;2022-08-01T02:12:24;3.40;;;2.73;;
4555;SDS011;2290;48.674;9.018;2022-08-01T02:14:51;3.10;;;2.20;;
4555;SDS011;2290;48.674;9.018;2022-08-01T02:17:18;3.70;;;2.27;;
4555;SDS011;2290;48.674;9.018;2022-08-01T02:19:46;2.53;;;2.00;;
4555;SDS011;2290;48.674;9.018;2022-08-01T02:22:26;2.90;;;2.20;;
4555;SDS011;2290;48.674;9.018;2022-08-01T02:25:14;2.50;;;2.10;;
4555;SDS011;2290;48.674;9.018;2022-08-01T02:30:34;3.10;;;2.50;;
4555;SDS011;2290;48.674;9.018;2022-08-01T02:33:08;3.40;;;2.60;;
4555;SDS011;2290;48.674;9.018;2022-08-01T02:35:43;3.17;;;2.20;;
4555;SDS011;2290;48.674;9.018;2022-08-01T02:38:13;2.37;;;2.10;;
4555;SDS011;2290;48.674;9.018;2022-08-01T02:40:43;2.43;;;1.87;;
4555;SDS011;2290;48.674;9.018;2022-08-01T02:43:12;3.03;;;2.40;;
4555;SDS011;2290;48.674;9.018;2022-08-01T02:45:44;2.97;;;2.13;;
4555;SDS011;2290;48.674;9.018;2022-08-01T02:48:13;3.73;;;2.30;;
4555;SDS011;2290;48.674;9.018;2022-08-01T02:50:42;2.43;;;2.03;;
4555;SDS011;2290;48.674;9.018;2022-08-01T02:53:11;4.57;;;2.40;;
4555;SDS011;2290;48.674;9.018;2022-08-01T02:55:38;2.63;;;2.03;;
4555;SDS011;2290;48.674;9.018;2022-08-01T02:58:06;2.30;;;2.10;;
4555;SDS011;2290;48.674;9.018;2022-08-01T03:00:33;2.50;;;2.20;;
4555;SDS011;2290;48.674;9.018;2022-08-01T03:03:00;2.40;;;1.97;;
4555;SDS011;2290;48.674;9.018;2022-08-01T03:05:27;2.47;;;2.27;;
4555;SDS011;2290;48.674;9.018;2022-08-01T03:07:55;2.10;;;1.90;;
4555;SDS011;2290;48.674;9.018;2022-08-01T03:10:22;2.40;;;2.20;;
4555;SDS011;2290;48.674;9.018;2022-08-01T03:12:49;2.90;;;2.23;;
4555;SDS011;2290;48.674;9.018;2022-08-01T03:15:16;2.93;;;2.00;;
4555;SDS011;2290;48.674;9.018;2022-08-01T03:17:43;1.93;;;1.70;;
4555;SDS011;2290;48.674;9.018;2022-08-01T03:20:10;2.60;;;2.00;;
4555;SDS011;2290;48.674;9.018;2022-08-01T03:22:40;2.80;;;1.83;;
4555;SDS011;2290;48.674;9.018;2022-08-01T03:25:08;2.37;;;2.00;;
4555;SDS011;2290;48.674;9.018;2022-08-01T03:27:36;2.13;;;1.80;;
4555;SDS011;2290;48.674;9.018;2022-08-01T03:30:03;2.90;;;2.57;;
4555;SDS011;2290;48.674;9.018;2022-08-01T03:32:31;3.47;;;2.10;;
4555;SDS011;2290;48.674;9.018;2022-08-01T03:34:57;2.87;;;2.07;;
4555;SDS011;2290;48.674;9.018;2022-08-01T03:37:27;3.03;;;2.07;;
4555;SDS011;2290;48.674;9.018;2022-08-01T03:39:58;2.13;;;1.77;;
4555;SDS011;2290;48.674;9.018;2022-08-01T03:42:34;2.43;;;1.93;;
4555;SDS011;2290;48.674;9.018;2022-08-01T03:45:06;2.17;;;1.87;;
4555;SDS011;2290;48.674;9.018;2022-08-01T03:47:36;4.20;;;1.90;;
4555;SDS011;2290;48.674;9.018;2022-08-01T03:50:03;3.00;;;1.93;;
4555;SDS011;2290;48.674;9.018;2022-08-01T03:52:32;3.27;;;2.30;;
4555;SDS011;2290;48.674;9.018;2022-08-01T03:55:05;6.33;;;2.13;;
4555;SDS011;2290;48.674;9.018;2022-08-01T03:57:32;2.33;;;2.00;;
4555;SDS011;2290;48.674;9.018;2022-08-01T03:59:58;3.10;;;2.27;;
4555;SDS011;2290;48.674;9.018;2022-08-01T04:02:25;2.97;;;2.20;;
4555;SDS011;2290;48.674;9.018;2022-08-01T04:04:54;3.00;;;2.30;;
4555;SDS011;2290;48.674;9.018;2022-08-01T04:09:49;2.90;;;2.23;;
4555;SDS011;2290;48.674;9.018;2022-08-01T04:12:15;3.07;;;2.20;;
4555;SDS011;2290;48.674;9.018;2022-08-01T04:14:40;2.90;;;2.13;;
4555;SDS011;2290;48.674;9.018;2022-08-01T04:17:06;3.03;;;2.10;;
4555;SDS011;2290;48.674;9.018;2022-08-01T04:19:31;2.90;;;2.17;;
4555;SDS011;2290;48.674;9.018;2022-08-01T04:21:57;2.60;;;2.17;;
4555;SDS011;2290;48.674;9.018;2022-08-01T04:24:23;3.13;;;2.20;;
4555;SDS011;2290;48.674;9.018;2022-08-01T04:26:52;3.27;;;2.17;;
4555;SDS011;2290;48.674;9.018;2022-08-01T04:29:19;2.43;;;2.23;;
4555;SDS011;2290;48.674;9.018;2022-08-01T04:31:47;2.37;;;2.00;;
4555;SDS011;2290;48.674;9.018;2022-08-01T04:34:15;2.70;;;1.93;;
4555;SDS011;2290;48.674;9.018;2022-08-01T04:36:45;3.73;;;2.33;;
4555;SDS011;2290;48.674;9.018;2022-08-01T04:39:12;3.40;;;2.63;;
4555;SDS011;2290;48.674;9.018;2022-08-01T04:41:40;2.83;;;1.93;;
4555;SDS011;2290;48.674;9.018;2022-08-01T04:44:06;2.43;;;2.10;;
4555;SDS011;2290;48.674;9.018;2022-08-01T04:46:32;2.50;;;2.17;;
4555;SDS011;2290;48.674;9.018;2022-08-01T04:48:59;2.30;;;2.10;;
4555;SDS011;2290;48.674;9.018;2022-08-01T04:51:27;2.77;;;2.00;;
4555;SDS011;2290;48.674;9.018;2022-08-01T04:53:52;3.20;;;2.17;;
4555;SDS011;2290;48.674;9.018;2022-08-01T04:56:18;3.43;;;2.40;;
4555;SDS011;2290;48.674;9.018;2022-08-01T04:58:45;3.03;;;2.50;;
4555;SDS011;2290;48.674;9.018;2022-08-01T05:01:12;7.40;;;2.70;;
4555;SDS011;2290;48.674;9.018;2022-08-01T05:03:38;2.33;;;2.13;;
4555;SDS011;2290;48.674;9.018;2022-08-01T05:06:04;2.90;;;2.37;;
4555;SDS011;2290;48.674;9.018;2022-08-01T05:08:29;2.13;;;1.80;;
4555;SDS011;2290;48.674;9.018;2022-08-01T05:10:55;2.70;;;2.17;;
4555;SDS011;2290;48.674;9.018;2022-08-01T05:13:20;2.90;;;2.43;;
4555;SDS011;2290;48.674;9.018;2022-08-01T05:15:46;4.70;;;2.27;;
4555;SDS011;2290;48.674;9.018;2022-08-01T05:18:12;2.97;;;2.27;;
4555;SDS011;2290;48.674;9.018;2022-08-01T05:20:37;3.50;;;2.50;;
4555;SDS011;2290;48.674;9.018;2022-08-01T05:23:03;2.87;;;2.03;;
4555;SDS011;2290;48.674;9.018;2022-08-01T05:25:29;3.53;;;2.30;;
4555;SDS011;2290;48.674;9.018;2022-08-01T05:27:55;2.60;;;2.17;;
4555;SDS011;2290;48.674;9.018;2022-08-01T05:30:20;2.90;;;1.87;;
4555;SDS011;2290;48.674;9.018;2022-08-01T05:32:46;4.80;;;2.33;;
4555;SDS011;2290;48.674;9.018;2022-08-01T05:35:12;6.37;;;2.63;;
4555;SDS011;2290;48.674;9.018;2022-08-01T05:37:37;3.63;;;2.40;;
4555;SDS011;2290;48.674;9.018;2022-08-01T05:40:03;2.37;;;1.90;;
4555;SDS011;2290;48.674;9.018;2022-08-01T05:42:30;3.60;;;2.30;;
4555;SDS011;2290;48.674;9.018;2022-08-01T05:44:55;3.10;;;2.10;;
4555;SDS011;2290;48.674;9.018;2022-08-01T05:47:21;2.90;;;2.40;;
4555;SDS011;2290;48.674;9.018;2022-08-01T05:49:47;4.20;;;2.33;;
4555;SDS011;2290;48.674;9.018;2022-08-01T05:52:12;2.70;;;1.90;;
4555;SDS011;2290;48.674;9.018;2022-08-01T05:54:38;4.23;;;3.60;;
4555;SDS011;2290;48.674;9.018;2022-08-01T05:57:04;2.13;;;1.80;;
4555;SDS011;2290;48.674;9.018;2022-08-01T05:59:30;2.20;;;2.00;;
4555;SDS011;2290;48.674;9.018;2022-08-01T06:01:56;3.20;;;2.00;;
4555;SDS011;2290;48.674;9.018;2022-08-01T06:04:22;5.17;;;2.60;;
4555;SDS011;2290;48.674;9.018;2022-08-01T06:06:48;2.37;;;2.17;;
4555;SDS011;2290;48.674;9.018;2022-08-01T06:09:13;2.00;;;1.73;;
4555;SDS011;2290;48.674;9.018;2022-08-01T06:11:39;3.00;;;2.20;;
4555;SDS011;2290;48.674;9.018;2022-08-01T06:14:05;2.80;;;2.33;;
4555;SDS011;2290;48.674;9.018;2022-08-01T06:16:30;3.00;;;2.20;;
4555;SDS011;2290;48.674;9.018;2022-08-01T06:18:56;3.40;;;2.20;;
4555;SDS011;2290;48.674;9.018;2022-08-01T06:21:21;3.23;;;2.27;;
4555;SDS011;2290;48.674;9.018;2022-08-01T06:23:47;2.70;;;2.00;;
4555;SDS011;2290;48.674;9.018;2022-08-01T06:26:13;3.17;;;2.40;;
4555;SDS011;2290;48.674;9.018;2022-08-01T06:28:38;3.40;;;2.10;;
4555;SDS011;2290;48.674;9.018;2022-08-01T06:31:04;4.10;;;2.50;;
4555;SDS011;2290;48.674;9.018;2022-08-01T06:33:30;3.43;;;2.73;;
4555;SDS011;2290;48.674;9.018;2022-08-01T06:35:56;3.53;;;2.03;;
4555;SDS011;2290;48.674;9.018;2022-08-01T06:38:21;2.23;;;1.90;;
4555;SDS011;2290;48.674;9.018;2022-08-01T06:40:47;2.90;;;1.87;;
4555;SDS011;2290;48.674;9.018;2022-08-01T06:43:13;3.87;;;2.20;;
4555;SDS011;2290;48.674;9.018;2022-08-01T06:45:39;2.10;;;1.60;;
4555;SDS011;2290;48.674;9.018;2022-08-01T06:48:05;2.63;;;1.87;;
4555;SDS011;2290;48.674;9.018;2022-08-01T06:50:31;3.60;;;1.90;;
4555;SDS011;2290;48.674;9.018;2022-08-01T06:53:00;3.57;;;2.00;;
4555;SDS011;2290;48.674;9.018;2022-08-01T06:55:26;2.27;;;1.73;;
4555;SDS011;2290;48.674;9.018;2022-08-01T06:57:52;2.77;;;1.87;;
4555;SDS011;2290;48.674;9.018;2022-08-01T07:00:19;2.00;;;1.80;;
4555;SDS011;2290;48.674;9.018;2022-08-01T07:02:47;1.87;;;1.60;;
4555;SDS011;2290;48.674;9.018;2022-08-01T07:05:14;2.50;;;1.70;;
4555;SDS011;2290;48.674;9.018;2022-08-01T07:07:39;2.13;;;1.70;;
4555;SDS011;2290;48.674;9.018;2022-08-01T07:10:05;2.83;;;1.83;;
4555;SDS011;2290;48.674;9.018;2022-08-01T07:12:33;1.93;;;1.40;;
4555;SDS011;2290;48.674;9.018;2022-08-01T07:15:01;2.27;;;1.67;;
4555;SDS011;2290;48.674;9.018;2022-08-01T07:17:28;2.83;;;1.93;;
4555;SDS011;2290;48.674;9.018;2022-08-01T07:19:53;2.23;;;1.60;;
4555;SDS011;2290;48.674;9.018;2022-08-01T07:28:34;2.73;;;1.70;;
4555;SDS011;2290;48.674;9.018;2022-08-01T07:30:59;2.57;;;1.80;;
4555;SDS011;2290;48.674;9.018;2022-08-01T07:33:25;2.27;;;1.80;;
4555;SDS011;2290;48.674;9.018;2022-08-01T07:35:50;4.93;;;2.80;;
4555;SDS011;2290;48.674;9.018;2022-08-01T07:38:16;2.70;;;2.00;;
4555;SDS011;2290;48.674;9.018;2022-08-01T07:40:42;3.53;;;2.00;;
4555;SDS011;2290;48.674;9.018;2022-08-01T07:43:08;3.20;;;1.80;;
4555;SDS011;2290;48.674;9.018;2022-08-01T07:45:34;2.53;;;1.77;;
4555;SDS011;2290;48.674;9.018;2022-08-01T07:48:03;2.10;;;1.80;;
4555;SDS011;2290;48.674;9.018;2022-08-01T07:50:30;6.20;;;1.80;;
4555;SDS011;2290;48.674;9.018;2022-08-01T07:52:56;2.30;;;1.90;;
4555;SDS011;2290;48.674;9.018;2022-08-01T07:55:21;3.07;;;2.20;;
4555;SDS011;2290;48.674;9.018;2022-08-01T07:57:47;2.43;;;1.80;;
4555;SDS011;2290;48.674;9.018;2022-08-01T08:00:14;3.50;;;2.00;;
4555;SDS011;2290;48.674;9.018;2022-08-01T08:02:40;2.53;;;1.70;;
4555;SDS011;2290;48.674;9.018;2022-08-01T08:05:05;2.27;;;2.00;;
4555;SDS011;2290;48.674;9.018;2022-08-01T08:07:32;3.40;;;2.43;;
4555;SDS011;2290;48.674;9.018;2022-08-01T08:09:58;2.37;;;1.77;;
4555;SDS011;2290;48.674;9.018;2022-08-01T08:12:23;3.30;;;2.43;;
4555;SDS011;2290;48.674;9.018;2022-08-01T08:14:49;2.77;;;2.40;;
4555;SDS011;2290;48.674;9.018;2022-08-01T08:17:14;3.13;;;2.30;;
4555;SDS011;2290;48.674;9.018;2022-08-01T08:19:40;4.00;;;2.50;;
4555;SDS011;2290;48.674;9.018;2022-08-01T08:22:07;2.80;;;2.37;;
4555;SDS011;2290;48.674;9.018;2022-08-01T08:24:33;3.03;;;2.40;;
4555;SDS011;2290;48.674;9.018;2022-08-01T08:26:59;3.00;;;2.20;;
4555;SDS011;2290;48.674;9.018;2022-08-01T08:29:26;3.10;;;2.63;;
4555;SDS011;2290;48.674;9.018;2022-08-01T08:31:54;3.80;;;2.47;;
4555;SDS011;2290;48.674;9.018;2022-08-01T08:34:21;2.67;;;2.30;;
4555;SDS011;2290;48.674;9.018;2022-08-01T08:36:48;2.50;;;2.17;;
4555;SDS011;2290;48.674;9.018;2022-08-01T08:39:14;2.60;;;2.03;;
4555;SDS011;2290;48.674;9.018;2022-08-01T08:41:40;2.77;;;2.20;;
4555;SDS011;2290;48.674;9.018;2022-08-01T08:44:07;4.00;;;2.67;;
4555;SDS011;2290;48.674;9.018;2022-08-01T08:46:33;2.73;;;2.33;;
4555;SDS011;2290;48.674;9.018;2022-08-01T08:49:05;3.17;;;2.50;;
4555;SDS011;2290;48.674;9.018;2022-08-01T08:51:32;3.17;;;2.67;;
4555;SDS011;2290;48.674;9.018;2022-08-01T08:53:59;3.77;;;2.90;;
4555;SDS011;2290;48.674;9.018;2022-08-01T08:56:27;2.80;;;2.20;;
4555;SDS011;2290;48.674;9.018;2022-08-01T08:58:58;3.17;;;2.30;;
4555;SDS011;2290;48.674;9.018;2022-08-01T09:01:25;3.33;;;2.50;;
4555;SDS011;2290;48.674;9.018;2022-08-01T09:03:51;2.70;;;2.10;;
4555;SDS011;2290;48.674;9.018;2022-08-01T09:06:17;3.13;;;2.20;;
4555;SDS011;2290;48.674;9.018;2022-08-01T09:08:47;3.40;;;2.43;;
4555;SDS011;2290;48.674;9.018;2022-08-01T09:11:13;2.50;;;2.23;;
4555;SDS011;2290;48.674;9.018;2022-08-01T09:13:38;3.23;;;2.17;;
4555;SDS011;2290;48.674;9.018;2022-08-01T09:16:04;2.73;;;2.10;;
4555;SDS011;2290;48.674;9.018;2022-08-01T09:18:31;2.67;;;2.13;;
4555;SDS011;2290;48.674;9.018;2022-08-01T09:21:15;2.67;;;2.20;;
4555;SDS011;2290;48.674;9.018;2022-08-01T09:23:50;3.17;;;2.33;;
4555;SDS011;2290;48.674;9.018;2022-08-01T09:26:19;3.40;;;2.00;;
4555;SDS011;2290;48.674;9.018;2022-08-01T09:28:46;2.80;;;2.23;;
4555;SDS011;2290;48.674;9.018;2022-08-01T09:31:13;3.60;;;2.40;;
4555;SDS011;2290;48.674;9.018;2022-08-01T09:36:24;3.30;;;2.23;;
4555;SDS011;2290;48.674;9.018;2022-08-01T09:38:51;3.60;;;2.30;;
4555;SDS011;2290;48.674;9.018;2022-08-01T09:41:29;4.63;;;2.60;;
4555;SDS011;2290;48.674;9.018;2022-08-01T09:43:59;4.10;;;2.93;;
4555;SDS011;2290;48.674;9.018;2022-08-01T09:46:24;3.53;;;3.23;;
4555;SDS011;2290;48.674;9.018;2022-08-01T09:53:58;4.27;;;2.80;;
4555;SDS011;2290;48.674;9.018;2022-08-01T09:56:25;4.87;;;3.10;;
4555;SDS011;2290;48.674;9.018;2022-08-01T09:58:58;4.13;;;2.40;;
4555;SDS011;2290;48.674;9.018;2022-08-01T10:01:24;4.43;;;3.37;;
4555;SDS011;2290;48.674;9.018;2022-08-01T10:04:04;4.77;;;3.50;;
4555;SDS011;2290;48.674;9.018;2022-08-01T10:06:31;5.10;;;3.63;;
4555;SDS011;2290;48.674;9.018;2022-08-01T10:08:57;4.83;;;3.90;;
4555;SDS011;2290;48.674;9.018;2022-08-01T10:11:22;5.43;;;3.80;;
4555;SDS011;2290;48.674;9.018;2022-08-01T10:13:48;4.60;;;4.00;;
4555;SDS011;2290;48.674;9.018;2022-08-01T10:16:14;5.30;;;3.60;;
4555;SDS011;2290;48.674;9.018;2022-08-01T10:18:40;4.50;;;3.20;;
4555;SDS011;2290;48.674;9.018;2022-08-01T10:21:07;5.27;;;3.77;;
4555;SDS011;2290;48.674;9.018;2022-08-01T10:23:35;4.10;;;3.03;;
4555;SDS011;2290;48.674;9.018;2022-08-01T10:26:02;3.63;;;3.10;;
4555;SDS011;2290;48.674;9.018;2022-08-01T10:28:32;4.93;;;2.90;;
4555;SDS011;2290;48.674;9.018;2022-08-01T10:31:01;4.80;;;3.50;;
4555;SDS011;2290;48.674;9.018;2022-08-01T10:33:27;3.80;;;2.80;;
4555;SDS011;2290;48.674;9.018;2022-08-01T10:35:54;3.43;;;2.80;;
4555;SDS011;2290;48.674;9.018;2022-08-01T10:38:20;3.50;;;2.80;;
4555;SDS011;2290;48.674;9.018;2022-08-01T10:40:48;3.27;;;2.87;;
4555;SDS011;2290;48.674;9.018;2022-08-01T10:43:16;3.77;;;2.90;;
4555;SDS011;2290;48.674;9.018;2022-08-01T10:45:43;4.63;;;3.40;;
4555;SDS011;2290;48.674;9.018;2022-08-01T10:48:14;3.70;;;3.17;;
4555;SDS011;2290;48.674;9.018;2022-08-01T10:51:05;4.13;;;2.73;;
4555;SDS011;2290;48.674;9.018;2022-08-01T10:53:32;3.37;;;2.97;;
4555;SDS011;2290;48.674;9.018;2022-08-01T10:56:03;3.40;;;2.77;;
4555;SDS011;2290;48.674;9.018;2022-08-01T11:01:43;5.27;;;3.20;;
4555;SDS011;2290;48.674;9.018;2022-08-01T11:06:41;3.97;;;2.77;;
4555;SDS011;2290;48.674;9.018;2022-08-01T11:09:38;4.37;;;2.53;;
4555;SDS011;2290;48.674;9.018;2022-08-01T11:12:06;3.00;;;2.40;;
4555;SDS011;2290;48.674;9.018;2022-08-01T11:15:16;5.30;;;2.30;;
4555;SDS011;2290;48.674;9.018;2022-08-01T11:17:50;3.97;;;2.30;;
4555;SDS011;2290;48.674;9.018;2022-08-01T11:20:21;4.70;;;2.23;;
4555;SDS011;2290;48.674;9.018;2022-08-01T11:26:06;3.57;;;2.67;;
4555;SDS011;2290;48.674;9.018;2022-08-01T11:30:47;3.40;;;2.30;;
4555;SDS011;2290;48.674;9.018;2022-08-01T11:33:17;2.40;;;2.03;;
4555;SDS011;2290;48.674;9.018;2022-08-01T11:41:26;5.70;;;2.47;;
4555;SDS011;2290;48.674;9.018;2022-08-01T11:44:03;4.60;;;2.93;;
4555;SDS011;2290;48.674;9.018;2022-08-01T11:46:46;3.63;;;2.30;;
4555;SDS011;2290;48.674;9.018;2022-08-01T11:54:34;3.00;;;2.20;;
4555;SDS011;2290;48.674;9.018;2022-08-01T11:57:05;3.20;;;2.50;;
4555;SDS011;2290;48.674;9.018;2022-08-01T11:59:46;3.97;;;2.47;;
4555;SDS011;2290;48.674;9.018;2022-08-01T12:02:24;3.40;;;2.00;;
4555;SDS011;2290;48.674;9.018;2022-08-01T12:07:27;2.60;;;1.90;;
4555;SDS011;2290;48.674;9.018;2022-08-01T12:10:12;3.30;;;2.20;;
4555;SDS011;2290;48.674;9.018;2022-08-01T12:12:49;3.03;;;2.43;;
4555;SDS011;2290;48.674;9.018;2022-08-01T12:15:16;2.90;;;2.10;;
4555;SDS011;2290;48.674;9.018;2022-08-01T12:17:44;2.93;;;2.33;;
4555;SDS011;2290;48.674;9.018;2022-08-01T12:20:12;2.73;;;2.20;;
4555;SDS011;2290;48.674;9.018;2022-08-01T12:22:39;2.57;;;1.87;;
4555;SDS011;2290;48.674;9.018;2022-08-01T12:27:32;2.60;;;1.97;;
4555;SDS011;2290;48.674;9.018;2022-08-01T12:29:59;3.07;;;2.20;;
4555;SDS011;2290;48.674;9.018;2022-08-01T12:32:29;2.87;;;2.27;;
4555;SDS011;2290;48.674;9.018;2022-08-01T12:35:00;2.30;;;2.07;;
4555;SDS011;2290;48.674;9.018;2022-08-01T12:37:31;2.50;;;2.13;;
4555;SDS011;2290;48.674;9.018;2022-08-01T12:40:02;3.20;;;2.43;;
4555;SDS011;2290;48.674;9.018;2022-08-01T12:42:36;3.10;;;1.70;;
4555;SDS011;2290;48.674;9.018;2022-08-01T12:45:04;2.47;;;2.10;;
4555;SDS011;2290;48.674;9.018;2022-08-01T12:47:30;2.73;;;2.13;;
4555;SDS011;2290;48.674;9.018;2022-08-01T12:49:56;2.23;;;1.93;;
4555;SDS011;2290;48.674;9.018;2022-08-01T12:52:23;2.60;;;2.10;;
4555;SDS011;2290;48.674;9.018;2022-08-01T12:57:34;2.30;;;1.80;;
4555;SDS011;2290;48.674;9.018;2022-08-01T13:00:16;2.30;;;2.10;;
4555;SDS011;2290;48.674;9.018;2022-08-01T13:02:47;3.40;;;2.13;;
4555;SDS011;2290;48.674;9.018;2022-08-01T13:05:15;3.33;;;2.20;;
4555;SDS011;2290;48.674;9.018;2022-08-01T13:07:48;3.07;;;2.40;;
4555;SDS011;2290;48.674;9.018;2022-08-01T13:10:23;3.37;;;2.10;;
4555;SDS011;2290;48.674;9.018;2022-08-01T13:12:52;3.13;;;2.30;;
4555;SDS011;2290;48.674;9.018;2022-08-01T13:15:24;3.20;;;2.03;;
4555;SDS011;2290;48.674;9.018;2022-08-01T13:17:59;3.43;;;2.40;;
4555;SDS011;2290;48.674;9.018;2022-08-01T13:20:29;2.80;;;2.20;;
4555;SDS011;2290;48.674;9.018;2022-08-01T13:23:12;4.87;;;2.37;;
4555;SDS011;2290;48.674;9.018;2022-08-01T13:25:47;2.13;;;1.70;;
4555;SDS011;2290;48.674;9.018;2022-08-01T13:28:23;2.90;;;1.93;;
4555;SDS011;2290;48.674;9.018;2022-08-01T13:30:51;3.60;;;1.80;;
4555;SDS011;2290;48.674;9.018;2022-08-01T13:33:21;3.00;;;2.30;;
4555;SDS011;2290;48.674;9.018;2022-08-01T13:35:56;3.60;;;2.30;;
4555;SDS011;2290;48.674;9.018;2022-08-01T13:38:22;2.67;;;2.07;;
4555;SDS011;2290;48.674;9.018;2022-08-01T13:41:08;3.13;;;2.03;;
4555;SDS011;2290;48.674;9.018;2022-08-01T13:43:34;5.10;;;2.40;;
4555;SDS011;2290;48.674;9.018;2022-08-01T13:46:00;4.03;;;2.30;;
4555;SDS011;2290;48.674;9.018;2022-08-01T13:48:28;3.10;;;2.30;;
4555;SDS011;2290;48.674;9.018;2022-08-01T13:50:54;3.00;;;1.93;;
4555;SDS011;2290;48.674;9.018;2022-08-01T13:53:20;2.80;;;2.23;;
4555;SDS011;2290;48.674;9.018;2022-08-01T13:55:45;4.20;;;2.60;;
4555;SDS011;2290;48.674;9.018;2022-08-01T13:58:11;3.10;;;2.60;;
4555;SDS011;2290;48.674;9.018;2022-08-01T14:00:36;2.80;;;2.30;;
4555;SDS011;2290;48.674;9.018;2022-08-01T14:03:02;3.27;;;2.27;;
4555;SDS011;2290;48.674;9.018;2022-08-01T14:05:28;4.43;;;2.70;;
4555;SDS011;2290;48.674;9.018;2022-08-01T14:07:54;2.80;;;2.00;;
4555;SDS011;2290;48.674;9.018;2022-08-01T14:10:20;2.67;;;2.00;;
4555;SDS011;2290;48.674;9.018;2022-08-01T14:12:46;3.17;;;2.43;;
4555;SDS011;2290;48.674;9.018;2022-08-01T14:15:12;4.10;;;2.23;;
4555;SDS011;2290;48.674;9.018;2022-08-01T14:17:38;3.50;;;2.10;;
4555;SDS011;2290;48.674;9.018;2022-08-01T14:20:04;3.17;;;2.30;;
4555;SDS011;2290;48.674;9.018;2022-08-01T14:22:30;3.63;;;2.20;;
4555;SDS011;2290;48.674;9.018;2022-08-01T14:24:56;2.80;;;1.93;;
4555;SDS011;2290;48.674;9.018;2022-08-01T14:27:21;3.50;;;2.80;;
4555;SDS011;2290;48.674;9.018;2022-08-01T14:29:47;2.67;;;2.07;;
4555;SDS011;2290;48.674;9.018;2022-08-01T14:32:12;3.83;;;2.47;;
4555;SDS011;2290;48.674;9.018;2022-08-01T14:34:38;2.60;;;2.00;;
4555;SDS011;2290;48.674;9.018;2022-08-01T14:37:03;3.27;;;2.50;;
4555;SDS011;2290;48.674;9.018;2022-08-01T14:39:30;3.57;;;2.57;;
4555;SDS011;2290;48.674;9.018;2022-08-01T14:41:56;2.33;;;1.90;;
4555;SDS011;2290;48.674;9.018;2022-08-01T14:44:21;2.43;;;1.97;;
4555;SDS011;2290;48.674;9.018;2022-08-01T14:46:47;2.77;;;2.07;;
4555;SDS011;2290;48.674;9.018;2022-08-01T14:49:13;2.60;;;2.20;;
4555;SDS011;2290;48.674;9.018;2022-08-01T14:51:39;2.67;;;1.97;;
4555;SDS011;2290;48.674;9.018;2022-08-01T14:54:05;3.10;;;2.30;;
4555;SDS011;2290;48.674;9.018;2022-08-01T14:56:31;4.13;;;2.23;;
4555;SDS011;2290;48.674;9.018;2022-08-01T14:58:56;2.77;;;2.10;;
4555;SDS011;2290;48.674;9.018;2022-08-01T15:01:22;2.43;;;2.10;;
4555;SDS011;2290;48.674;9.018;2022-08-01T15:03:47;2.97;;;2.00;;
4555;SDS011;2290;48.674;9.018;2022-08-01T15:06:16;3.67;;;2.20;;
4555;SDS011;2290;48.674;9.018;2022-08-01T15:08:42;3.00;;;2.20;;
4555;SDS011;2290;48.674;9.018;2022-08-01T15:11:09;3.23;;;2.23;;
4555;SDS011;2290;48.674;9.018;2022-08-01T15:13:34;2.90;;;2.40;;
4555;SDS011;2290;48.674;9.018;2022-08-01T15:16:00;5.50;;;2.40;;
4555;SDS011;2290;48.674;9.018;2022-08-01T15:18:27;4.37;;;2.83;;
4555;SDS011;2290;48.674;9.018;2022-08-01T15:20:53;2.67;;;2.20;;
4555;SDS011;2290;48.674;9.018;2022-08-01T15:23:19;3.50;;;2.40;;
4555;SDS011;2290;48.674;9.018;2022-08-01T15:25:47;3.20;;;2.40;;
4555;SDS011;2290;48.674;9.018;2022-08-01T15:28:12;3.17;;;2.40;;
4555;SDS011;2290;48.674;9.018;2022-08-01T15:30:39;2.93;;;2.10;;
4555;SDS011;2290;48.674;9.018;2022-08-01T15:33:05;2.30;;;2.10;;
4555;SDS011;2290;48.674;9.018;2022-08-01T15:35:31;4.90;;;2.20;;
4555;SDS011;2290;48.674;9.018;2022-08-01T15:37:57;3.63;;;1.90;;
4555;SDS011;2290;48.674;9.018;2022-08-01T15:40:22;3.10;;;2.10;;
4555;SDS011;2290;48.674;9.018;2022-08-01T15:42:48;2.60;;;2.13;;
4555;SDS011;2290;48.674;9.018;2022-08-01T15:45:14;2.93;;;2.20;;
4555;SDS011;2290;48.674;9.018;2022-08-01T15:47:43;2.43;;;1.73;;
4555;SDS011;2290;48.674;9.018;2022-08-01T15:50:08;1.90;;;1.73;;
4555;SDS011;2290;48.674;9.018;2022-08-01T15:52:34;3.20;;;1.93;;
4555;SDS011;2290;48.674;9.018;2022-08-01T15:55:00;2.83;;;1.90;;
4555;SDS011;2290;48.674;9.018;2022-08-01T15:57:26;2.60;;;2.20;;
4555;SDS011;2290;48.674;9.018;2022-08-01T15:59:52;2.70;;;2.00;;
4555;SDS011;2290;48.674;9.018;2022-08-01T16:02:17;2.73;;;1.87;;
4555;SDS011;2290;48.674;9.018;2022-08-01T16:04:43;2.43;;;1.90;;
4555;SDS011;2290;48.674;9.018;2022-08-01T16:07:08;3.27;;;1.97;;
4555;SDS011;2290;48.674;9.018;2022-08-01T16:09:35;2.70;;;1.90;;
4555;SDS011;2290;48.674;9.018;2022-08-01T16:12:00;2.90;;;1.87;;
4555;SDS011;2290;48.674;9.018;2022-08-01T16:14:26;2.80;;;2.20;;
4555;SDS011;2290;48.674;9.018;2022-08-01T16:16:51;2.40;;;1.80;;